sensor_id;sensor_type;location;lat;lon;timestamp;temperature;humidity
10530;DHT22;5313;48.834;9.228;2022-10-19T00:00:47;13.90;99.90
10530;DHT22;5313;48.834;9.228;2022-10-19T00:03:13;13.80;99.90
10530;DHT22;5313;48.834;9.228;2022-10-19T00:05:38;13.80;99.90
10530;DHT22;5313;48.834;9.228;2022-10-19T00:08:04;13.70;99.90
10530;DHT22;5313;48.834;9.228;2022-10-19T00:10:30;13.70;99.90
10530;DHT22;5313;48.834;9.228;2022-10-19T00:12:56;13.70;99.90
10530;DHT22;5313;48.834;9.228;2022-10-19T00:15:22;13.50;99.90
10530;DHT22;5313;48.834;9.228;2022-10-19T00:17:47;13.40;99.90
10530;DHT22;5313;48.834;9.228;2022-10-19T00:20:13;13.40;99.90
10530;DHT22;5313;48.834;9.228;2022-10-19T00:22:38;13.40;99.90
10530;DHT22;5313;48.834;9.228;2022-10-19T00:25:04;13.50;99.90
10530;DHT22;5313;48.834;9.228;2022-10-19T00:27:30;13.40;99.90
10530;DHT22;5313;48.834;9.228;2022-10-19T00:29:56;13.40;99.90
10530;DHT22;5313;48.834;9.228;2022-10-19T00:32:21;13.20;99.90
10530;DHT22;5313;48.834;9.228;2022-10-19T00:34:47;13.10;99.90
10530;DHT22;5313;48.834;9.228;2022-10-19T00:37:13;13.10;99.90
10530;DHT22;5313;48.834;9.228;2022-10-19T00:39:38;13.20;99.90
10530;DHT22;5313;48.834;9.228;2022-10-19T00:42:04;13.40;99.90
10530;DHT22;5313;48.834;9.228;2022-10-19T00:47:02;13.60;99.90
10530;DHT22;5313;48.834;9.228;2022-10-19T00:49:34;13.60;99.90
10530;DHT22;5313;48.834;9.228;2022-10-19T00:52:04;13.50;99.90
10530;DHT22;5313;48.834;9.228;2022-10-19T00:54:31;13.40;99.90
10530;DHT22;5313;48.834;9.228;2022-10-19T00:56:57;13.30;99.90
10530;DHT22;5313;48.834;9.228;2022-10-19T00:59:24;13.40;99.90
10530;DHT22;5313;48.834;9.228;2022-10-19T01:01:52;13.40;99.90
10530;DHT22;5313;48.834;9.228;2022-10-19T01:04:22;13.50;99.90
10530;DHT22;5313;48.834;9.228;2022-10-19T01:06:49;13.60;99.90
10530;DHT22;5313;48.834;9.228;2022-10-19T01:09:15;13.60;99.90
10530;DHT22;5313;48.834;9.228;2022-10-19T01:31:31;13.70;99.90
10530;DHT22;5313;48.834;9.228;2022-10-19T01:34:24;13.70;99.90
10530;DHT22;5313;48.834;9.228;2022-10-19T01:39:52;13.80;99.90
10530;DHT22;5313;48.834;9.228;2022-10-19T01:42:30;13.70;99.90
10530;DHT22;5313;48.834;9.228;2022-10-19T01:45:20;13.70;99.90
10530;DHT22;5313;48.834;9.228;2022-10-19T01:48:03;13.60;99.90
10530;DHT22;5313;48.834;9.228;2022-10-19T01:50:54;13.70;99.90
10530;DHT22;5313;48.834;9.228;2022-10-19T01:53:23;13.80;99.90
10530;DHT22;5313;48.834;9.228;2022-10-19T01:55:52;13.80;99.90
10530;DHT22;5313;48.834;9.228;2022-10-19T01:58:25;13.90;99.90
10530;DHT22;5313;48.834;9.228;2022-10-19T02:00:52;13.80;99.90
10530;DHT22;5313;48.834;9.228;2022-10-19T02:03:21;13.90;99.90
10530;DHT22;5313;48.834;9.228;2022-10-19T02:05:49;13.90;99.90
10530;DHT22;5313;48.834;9.228;2022-10-19T02:08:21;13.90;99.90
10530;DHT22;5313;48.834;9.228;2022-10-19T02:10:47;13.90;99.90
10530;DHT22;5313;48.834;9.228;2022-10-19T02:13:14;14.00;99.90
10530;DHT22;5313;48.834;9.228;2022-10-19T02:15:43;13.90;99.90
10530;DHT22;5313;48.834;9.228;2022-10-19T02:18:12;14.00;99.90
10530;DHT22;5313;48.834;9.228;2022-10-19T02:20:39;14.00;99.90
10530;DHT22;5313;48.834;9.228;2022-10-19T02:23:05;14.00;99.90
10530;DHT22;5313;48.834;9.228;2022-10-19T02:25:31;14.00;99.90
10530;DHT22;5313;48.834;9.228;2022-10-19T02:27:57;14.00;99.90
10530;DHT22;5313;48.834;9.228;2022-10-19T02:30:23;14.00;99.90
10530;DHT22;5313;48.834;9.228;2022-10-19T02:32:49;14.00;99.90
10530;DHT22;5313;48.834;9.228;2022-10-19T02:35:15;13.90;99.90
10530;DHT22;5313;48.834;9.228;2022-10-19T02:37:41;13.80;99.90
10530;DHT22;5313;48.834;9.228;2022-10-19T02:40:07;13.80;99.90
10530;DHT22;5313;48.834;9.228;2022-10-19T02:42:47;13.90;99.90
10530;DHT22;5313;48.834;9.228;2022-10-19T02:45:21;13.80;99.90
10530;DHT22;5313;48.834;9.228;2022-10-19T02:47:58;13.90;99.90
10530;DHT22;5313;48.834;9.228;2022-10-19T02:50:25;13.80;99.90
10530;DHT22;5313;48.834;9.228;2022-10-19T02:52:50;13.70;99.90
10530;DHT22;5313;48.834;9.228;2022-10-19T02:55:16;13.80;99.90
10530;DHT22;5313;48.834;9.228;2022-10-19T02:57:42;13.90;99.90
10530;DHT22;5313;48.834;9.228;2022-10-19T03:00:09;13.90;99.90
10530;DHT22;5313;48.834;9.228;2022-10-19T03:02:35;13.90;99.90
10530;DHT22;5313;48.834;9.228;2022-10-19T03:05:00;14.00;99.90
10530;DHT22;5313;48.834;9.228;2022-10-19T03:07:26;14.00;99.90
10530;DHT22;5313;48.834;9.228;2022-10-19T03:09:52;14.10;99.90
10530;DHT22;5313;48.834;9.228;2022-10-19T03:12:17;14.10;99.90
10530;DHT22;5313;48.834;9.228;2022-10-19T03:14:43;14.10;99.90
10530;DHT22;5313;48.834;9.228;2022-10-19T03:17:09;14.10;99.90
10530;DHT22;5313;48.834;9.228;2022-10-19T03:19:35;14.10;99.90
10530;DHT22;5313;48.834;9.228;2022-10-19T03:22:01;14.10;99.90
10530;DHT22;5313;48.834;9.228;2022-10-19T03:24:28;14.10;99.90
10530;DHT22;5313;48.834;9.228;2022-10-19T03:26:53;14.20;99.90
10530;DHT22;5313;48.834;9.228;2022-10-19T03:29:19;14.20;99.90
10530;DHT22;5313;48.834;9.228;2022-10-19T03:31:44;14.20;99.90
10530;DHT22;5313;48.834;9.228;2022-10-19T03:34:10;14.30;99.90
10530;DHT22;5313;48.834;9.228;2022-10-19T03:36:37;14.30;99.90
10530;DHT22;5313;48.834;9.228;2022-10-19T03:39:06;14.30;99.90
10530;DHT22;5313;48.834;9.228;2022-10-19T03:41:34;14.30;99.90
10530;DHT22;5313;48.834;9.228;2022-10-19T03:44:00;14.20;99.90
10530;DHT22;5313;48.834;9.228;2022-10-19T03:46:26;14.20;99.90
10530;DHT22;5313;48.834;9.228;2022-10-19T03:48:52;14.30;99.90
10530;DHT22;5313;48.834;9.228;2022-10-19T03:51:21;14.30;99.90
10530;DHT22;5313;48.834;9.228;2022-10-19T03:53:50;14.30;99.90
10530;DHT22;5313;48.834;9.228;2022-10-19T03:56:18;14.30;99.90
10530;DHT22;5313;48.834;9.228;2022-10-19T03:58:45;14.30;99.90
10530;DHT22;5313;48.834;9.228;2022-10-19T04:01:16;14.40;99.90
10530;DHT22;5313;48.834;9.228;2022-10-19T04:03:42;14.30;99.90
10530;DHT22;5313;48.834;9.228;2022-10-19T04:06:16;14.30;99.90
10530;DHT22;5313;48.834;9.228;2022-10-19T04:08:42;14.30;99.90
10530;DHT22;5313;48.834;9.228;2022-10-19T04:11:12;14.20;99.90
10530;DHT22;5313;48.834;9.228;2022-10-19T04:13:38;14.30;99.90
10530;DHT22;5313;48.834;9.228;2022-10-19T04:16:04;14.20;99.90
10530;DHT22;5313;48.834;9.228;2022-10-19T04:18:30;14.20;99.90
10530;DHT22;5313;48.834;9.228;2022-10-19T04:21:00;14.20;99.90
10530;DHT22;5313;48.834;9.228;2022-10-19T04:23:28;14.20;99.90
10530;DHT22;5313;48.834;9.228;2022-10-19T04:26:03;14.10;99.90
10530;DHT22;5313;48.834;9.228;2022-10-19T04:28:29;14.00;99.90
10530;DHT22;5313;48.834;9.228;2022-10-19T04:30:55;14.00;99.90
10530;DHT22;5313;48.834;9.228;2022-10-19T04:33:20;14.00;99.90
10530;DHT22;5313;48.834;9.228;2022-10-19T04:35:46;13.90;99.90
10530;DHT22;5313;48.834;9.228;2022-10-19T04:38:11;13.90;99.90
10530;DHT22;5313;48.834;9.228;2022-10-19T04:40:37;13.90;99.90
10530;DHT22;5313;48.834;9.228;2022-10-19T04:43:03;13.90;99.90
10530;DHT22;5313;48.834;9.228;2022-10-19T04:45:30;13.80;99.90
10530;DHT22;5313;48.834;9.228;2022-10-19T04:47:55;13.80;99.90
10530;DHT22;5313;48.834;9.228;2022-10-19T04:50:24;13.70;99.90
10530;DHT22;5313;48.834;9.228;2022-10-19T04:52:50;13.70;99.90
10530;DHT22;5313;48.834;9.228;2022-10-19T04:55:15;13.60;99.90
10530;DHT22;5313;48.834;9.228;2022-10-19T04:57:41;13.60;99.90
10530;DHT22;5313;48.834;9.228;2022-10-19T05:00:07;13.50;99.90
10530;DHT22;5313;48.834;9.228;2022-10-19T05:02:33;13.50;99.90
10530;DHT22;5313;48.834;9.228;2022-10-19T05:04:58;13.50;99.90
10530;DHT22;5313;48.834;9.228;2022-10-19T05:07:24;13.50;99.90
10530;DHT22;5313;48.834;9.228;2022-10-19T05:09:50;13.40;99.90
10530;DHT22;5313;48.834;9.228;2022-10-19T05:12:15;13.50;99.90
10530;DHT22;5313;48.834;9.228;2022-10-19T05:14:41;13.30;99.90
10530;DHT22;5313;48.834;9.228;2022-10-19T05:17:06;13.20;99.90
10530;DHT22;5313;48.834;9.228;2022-10-19T05:19:32;13.10;99.90
10530;DHT22;5313;48.834;9.228;2022-10-19T05:21:57;13.10;99.90
10530;DHT22;5313;48.834;9.228;2022-10-19T05:24:23;13.10;99.90
10530;DHT22;5313;48.834;9.228;2022-10-19T05:26:48;13.10;99.90
10530;DHT22;5313;48.834;9.228;2022-10-19T05:29:14;13.00;99.90
10530;DHT22;5313;48.834;9.228;2022-10-19T05:31:40;13.10;99.90
10530;DHT22;5313;48.834;9.228;2022-10-19T05:34:05;13.10;99.90
10530;DHT22;5313;48.834;9.228;2022-10-19T05:36:38;13.10;99.90
10530;DHT22;5313;48.834;9.228;2022-10-19T05:39:07;13.10;99.90
10530;DHT22;5313;48.834;9.228;2022-10-19T05:41:33;13.20;99.90
10530;DHT22;5313;48.834;9.228;2022-10-19T05:44:00;13.20;99.90
10530;DHT22;5313;48.834;9.228;2022-10-19T05:46:27;13.20;99.90
10530;DHT22;5313;48.834;9.228;2022-10-19T05:48:55;13.20;99.90
10530;DHT22;5313;48.834;9.228;2022-10-19T05:51:22;13.20;99.90
10530;DHT22;5313;48.834;9.228;2022-10-19T05:53:49;13.20;99.90
10530;DHT22;5313;48.834;9.228;2022-10-19T05:56:17;13.20;99.90
10530;DHT22;5313;48.834;9.228;2022-10-19T05:58:44;13.30;99.90
10530;DHT22;5313;48.834;9.228;2022-10-19T06:01:09;13.30;99.90
10530;DHT22;5313;48.834;9.228;2022-10-19T06:03:35;13.30;99.90
10530;DHT22;5313;48.834;9.228;2022-10-19T06:06:05;13.30;99.90
10530;DHT22;5313;48.834;9.228;2022-10-19T06:08:31;13.30;99.90
10530;DHT22;5313;48.834;9.228;2022-10-19T06:11:05;13.30;99.90
10530;DHT22;5313;48.834;9.228;2022-10-19T06:13:31;13.30;99.90
10530;DHT22;5313;48.834;9.228;2022-10-19T06:15:57;13.40;99.90
10530;DHT22;5313;48.834;9.228;2022-10-19T06:18:22;13.40;99.90
10530;DHT22;5313;48.834;9.228;2022-10-19T06:20:51;13.40;99.90
10530;DHT22;5313;48.834;9.228;2022-10-19T06:23:17;13.40;99.90
10530;DHT22;5313;48.834;9.228;2022-10-19T06:25:43;13.40;99.90
10530;DHT22;5313;48.834;9.228;2022-10-19T06:28:09;13.40;99.90
10530;DHT22;5313;48.834;9.228;2022-10-19T06:30:41;13.40;99.90
10530;DHT22;5313;48.834;9.228;2022-10-19T06:33:06;13.50;99.90
10530;DHT22;5313;48.834;9.228;2022-10-19T06:35:32;13.40;99.90
10530;DHT22;5313;48.834;9.228;2022-10-19T06:37:59;13.50;99.90
10530;DHT22;5313;48.834;9.228;2022-10-19T06:40:24;13.50;99.90
10530;DHT22;5313;48.834;9.228;2022-10-19T06:42:50;13.50;99.90
10530;DHT22;5313;48.834;9.228;2022-10-19T06:45:16;13.50;99.90
10530;DHT22;5313;48.834;9.228;2022-10-19T06:47:42;13.50;99.90
10530;DHT22;5313;48.834;9.228;2022-10-19T06:50:08;13.50;99.90
10530;DHT22;5313;48.834;9.228;2022-10-19T06:52:34;13.60;99.90
10530;DHT22;5313;48.834;9.228;2022-10-19T06:55:00;13.70;99.90
10530;DHT22;5313;48.834;9.228;2022-10-19T06:57:26;13.70;99.90
10530;DHT22;5313;48.834;9.228;2022-10-19T06:59:53;13.70;99.90
10530;DHT22;5313;48.834;9.228;2022-10-19T07:02:18;13.80;99.90
10530;DHT22;5313;48.834;9.228;2022-10-19T07:04:44;13.90;99.90
10530;DHT22;5313;48.834;9.228;2022-10-19T07:07:09;13.90;99.90
10530;DHT22;5313;48.834;9.228;2022-10-19T07:09:35;14.10;99.90
10530;DHT22;5313;48.834;9.228;2022-10-19T07:12:00;14.30;99.90
10530;DHT22;5313;48.834;9.228;2022-10-19T07:14:26;14.40;99.90
10530;DHT22;5313;48.834;9.228;2022-10-19T07:16:53;14.50;99.90
10530;DHT22;5313;48.834;9.228;2022-10-19T07:19:20;14.50;99.90
10530;DHT22;5313;48.834;9.228;2022-10-19T07:21:49;14.50;99.90
10530;DHT22;5313;48.834;9.228;2022-10-19T07:24:15;14.50;99.90
10530;DHT22;5313;48.834;9.228;2022-10-19T07:26:40;14.60;99.90
10530;DHT22;5313;48.834;9.228;2022-10-19T07:29:06;14.60;99.90
10530;DHT22;5313;48.834;9.228;2022-10-19T07:31:32;14.60;99.90
10530;DHT22;5313;48.834;9.228;2022-10-19T07:33:59;14.70;99.90
10530;DHT22;5313;48.834;9.228;2022-10-19T07:36:26;14.60;99.90
10530;DHT22;5313;48.834;9.228;2022-10-19T07:38:52;14.60;99.90
10530;DHT22;5313;48.834;9.228;2022-10-19T07:41:20;14.60;99.90
10530;DHT22;5313;48.834;9.228;2022-10-19T07:43:46;14.60;99.90
10530;DHT22;5313;48.834;9.228;2022-10-19T07:46:15;14.50;99.90
10530;DHT22;5313;48.834;9.228;2022-10-19T07:48:42;14.60;99.90
10530;DHT22;5313;48.834;9.228;2022-10-19T07:51:08;14.50;99.90
10530;DHT22;5313;48.834;9.228;2022-10-19T07:53:35;14.60;99.90
10530;DHT22;5313;48.834;9.228;2022-10-19T07:56:06;14.70;99.90
10530;DHT22;5313;48.834;9.228;2022-10-19T07:58:32;14.70;99.90
10530;DHT22;5313;48.834;9.228;2022-10-19T08:01:00;14.70;99.90
10530;DHT22;5313;48.834;9.228;2022-10-19T08:03:26;14.80;99.90
10530;DHT22;5313;48.834;9.228;2022-10-19T08:05:52;14.80;99.90
10530;DHT22;5313;48.834;9.228;2022-10-19T08:08:17;14.80;99.90
10530;DHT22;5313;48.834;9.228;2022-10-19T08:10:43;14.90;99.90
10530;DHT22;5313;48.834;9.228;2022-10-19T08:13:08;14.90;99.90
10530;DHT22;5313;48.834;9.228;2022-10-19T08:15:34;15.10;99.90
10530;DHT22;5313;48.834;9.228;2022-10-19T08:17:59;15.10;99.90
10530;DHT22;5313;48.834;9.228;2022-10-19T08:20:25;15.20;99.90
10530;DHT22;5313;48.834;9.228;2022-10-19T08:22:51;15.30;99.90
10530;DHT22;5313;48.834;9.228;2022-10-19T08:25:16;15.20;99.90
10530;DHT22;5313;48.834;9.228;2022-10-19T08:27:42;15.20;99.90
10530;DHT22;5313;48.834;9.228;2022-10-19T08:30:08;15.20;99.90
10530;DHT22;5313;48.834;9.228;2022-10-19T08:32:33;15.30;99.90
10530;DHT22;5313;48.834;9.228;2022-10-19T08:34:59;15.30;99.90
10530;DHT22;5313;48.834;9.228;2022-10-19T08:37:24;15.40;99.90
10530;DHT22;5313;48.834;9.228;2022-10-19T08:39:50;15.50;99.90
10530;DHT22;5313;48.834;9.228;2022-10-19T08:42:18;15.40;99.90
10530;DHT22;5313;48.834;9.228;2022-10-19T08:45:15;15.60;99.90
10530;DHT22;5313;48.834;9.228;2022-10-19T08:50:42;15.70;99.90
10530;DHT22;5313;48.834;9.228;2022-10-19T08:53:24;15.70;99.90
10530;DHT22;5313;48.834;9.228;2022-10-19T09:08:38;15.70;99.90
10530;DHT22;5313;48.834;9.228;2022-10-19T09:11:05;15.70;99.90
10530;DHT22;5313;48.834;9.228;2022-10-19T09:13:44;15.70;99.90
10530;DHT22;5313;48.834;9.228;2022-10-19T09:16:12;15.80;99.90
10530;DHT22;5313;48.834;9.228;2022-10-19T09:18:39;15.80;99.90
10530;DHT22;5313;48.834;9.228;2022-10-19T09:21:23;15.90;99.90
10530;DHT22;5313;48.834;9.228;2022-10-19T09:26:29;15.80;99.90
10530;DHT22;5313;48.834;9.228;2022-10-19T09:29:02;16.00;99.90
10530;DHT22;5313;48.834;9.228;2022-10-19T09:31:35;15.90;99.90
10530;DHT22;5313;48.834;9.228;2022-10-19T09:34:04;16.00;99.90
10530;DHT22;5313;48.834;9.228;2022-10-19T09:36:40;16.10;99.90
10530;DHT22;5313;48.834;9.228;2022-10-19T09:39:10;16.00;99.90
10530;DHT22;5313;48.834;9.228;2022-10-19T09:41:44;15.90;99.90
10530;DHT22;5313;48.834;9.228;2022-10-19T09:44:11;16.00;99.90
10530;DHT22;5313;48.834;9.228;2022-10-19T09:46:47;16.10;99.90
10530;DHT22;5313;48.834;9.228;2022-10-19T09:52:00;16.20;99.90
10530;DHT22;5313;48.834;9.228;2022-10-19T09:54:37;16.10;99.90
10530;DHT22;5313;48.834;9.228;2022-10-19T09:57:03;16.70;99.90
10530;DHT22;5313;48.834;9.228;2022-10-19T09:59:34;16.00;99.90
10530;DHT22;5313;48.834;9.228;2022-10-19T10:02:15;16.00;99.90
10530;DHT22;5313;48.834;9.228;2022-10-19T10:04:45;16.20;99.90
10530;DHT22;5313;48.834;9.228;2022-10-19T10:07:15;17.00;99.90
10530;DHT22;5313;48.834;9.228;2022-10-19T10:09:42;16.40;99.90
10530;DHT22;5313;48.834;9.228;2022-10-19T10:12:09;16.40;99.90
10530;DHT22;5313;48.834;9.228;2022-10-19T10:14:38;16.50;99.90
10530;DHT22;5313;48.834;9.228;2022-10-19T10:17:17;16.70;99.90
10530;DHT22;5313;48.834;9.228;2022-10-19T10:20:35;16.20;99.90
10530;DHT22;5313;48.834;9.228;2022-10-19T10:22:36;16.30;99.90
10530;DHT22;5313;48.834;9.228;2022-10-19T10:25:11;16.40;99.90
10530;DHT22;5313;48.834;9.228;2022-10-19T10:27:38;16.40;99.90
10530;DHT22;5313;48.834;9.228;2022-10-19T10:30:15;16.50;99.90
10530;DHT22;5313;48.834;9.228;2022-10-19T10:32:47;16.50;99.90
10530;DHT22;5313;48.834;9.228;2022-10-19T10:35:20;16.40;99.90
10530;DHT22;5313;48.834;9.228;2022-10-19T10:37:47;16.30;99.90
10530;DHT22;5313;48.834;9.228;2022-10-19T10:40:20;16.30;99.90
10530;DHT22;5313;48.834;9.228;2022-10-19T10:42:47;16.40;99.90
10530;DHT22;5313;48.834;9.228;2022-10-19T10:45:23;16.50;99.90
10530;DHT22;5313;48.834;9.228;2022-10-19T10:47:50;16.50;99.90
10530;DHT22;5313;48.834;9.228;2022-10-19T10:50:21;16.50;99.90
10530;DHT22;5313;48.834;9.228;2022-10-19T10:56:00;16.80;99.90
10530;DHT22;5313;48.834;9.228;2022-10-19T11:00:52;16.90;99.90
10530;DHT22;5313;48.834;9.228;2022-10-19T11:03:25;17.00;99.90
10530;DHT22;5313;48.834;9.228;2022-10-19T11:05:55;17.20;99.90
10530;DHT22;5313;48.834;9.228;2022-10-19T11:11:18;17.50;99.90
10530;DHT22;5313;48.834;9.228;2022-10-19T11:13:51;17.70;99.90
10530;DHT22;5313;48.834;9.228;2022-10-19T11:16:26;17.60;99.90
10530;DHT22;5313;48.834;9.228;2022-10-19T11:18:58;17.70;99.90
10530;DHT22;5313;48.834;9.228;2022-10-19T11:21:36;17.60;99.90
10530;DHT22;5313;48.834;9.228;2022-10-19T11:30:12;17.60;99.90
10530;DHT22;5313;48.834;9.228;2022-10-19T11:35:48;17.50;99.90
10530;DHT22;5313;48.834;9.228;2022-10-19T11:38:33;17.60;99.90
10530;DHT22;5313;48.834;9.228;2022-10-19T11:41:27;17.70;99.90
10530;DHT22;5313;48.834;9.228;2022-10-19T11:52:29;19.90;99.90
10530;DHT22;5313;48.834;9.228;2022-10-19T11:57:53;19.20;99.90
10530;DHT22;5313;48.834;9.228;2022-10-19T12:00:20;19.40;99.90
10530;DHT22;5313;48.834;9.228;2022-10-19T12:02:54;19.20;99.90
10530;DHT22;5313;48.834;9.228;2022-10-19T12:05:32;19.30;99.90
10530;DHT22;5313;48.834;9.228;2022-10-19T12:08:42;19.60;99.90
10530;DHT22;5313;48.834;9.228;2022-10-19T12:14:10;19.60;99.90
10530;DHT22;5313;48.834;9.228;2022-10-19T12:16:40;19.20;99.90
10530;DHT22;5313;48.834;9.228;2022-10-19T12:19:13;19.20;99.90
10530;DHT22;5313;48.834;9.228;2022-10-19T12:21:41;19.00;99.90
10530;DHT22;5313;48.834;9.228;2022-10-19T12:24:19;18.50;99.90
10530;DHT22;5313;48.834;9.228;2022-10-19T12:26:46;18.30;99.90
10530;DHT22;5313;48.834;9.228;2022-10-19T12:29:20;18.40;99.90
10530;DHT22;5313;48.834;9.228;2022-10-19T12:31:48;18.40;99.90
10530;DHT22;5313;48.834;9.228;2022-10-19T12:34:29;18.30;99.90
10530;DHT22;5313;48.834;9.228;2022-10-19T12:37:23;18.40;99.90
10530;DHT22;5313;48.834;9.228;2022-10-19T12:40:03;18.60;99.90
10530;DHT22;5313;48.834;9.228;2022-10-19T12:45:26;19.30;99.90
10530;DHT22;5313;48.834;9.228;2022-10-19T12:48:21;19.70;99.90
10530;DHT22;5313;48.834;9.228;2022-10-19T12:53:31;20.10;99.90
10530;DHT22;5313;48.834;9.228;2022-10-19T12:56:11;20.40;99.90
10530;DHT22;5313;48.834;9.228;2022-10-19T12:58:38;20.60;99.90
10530;DHT22;5313;48.834;9.228;2022-10-19T13:06:47;21.20;99.90
10530;DHT22;5313;48.834;9.228;2022-10-19T13:09:33;20.40;99.90
10530;DHT22;5313;48.834;9.228;2022-10-19T13:14:52;21.20;99.90
10530;DHT22;5313;48.834;9.228;2022-10-19T13:22:43;20.10;99.90
10530;DHT22;5313;48.834;9.228;2022-10-19T13:27:55;19.70;99.90
10530;DHT22;5313;48.834;9.228;2022-10-19T13:36:06;20.00;99.90
10530;DHT22;5313;48.834;9.228;2022-10-19T13:38:33;19.90;99.90
10530;DHT22;5313;48.834;9.228;2022-10-19T13:46:12;19.30;99.90
10530;DHT22;5313;48.834;9.228;2022-10-19T13:52:08;19.30;99.90
10530;DHT22;5313;48.834;9.228;2022-10-19T14:00:08;19.10;99.90
10530;DHT22;5313;48.834;9.228;2022-10-19T14:11:18;19.30;99.90
10530;DHT22;5313;48.834;9.228;2022-10-19T14:13:45;19.30;99.90
10530;DHT22;5313;48.834;9.228;2022-10-19T14:16:20;19.50;99.90
10530;DHT22;5313;48.834;9.228;2022-10-19T14:18:54;19.50;99.90
10530;DHT22;5313;48.834;9.228;2022-10-19T14:21:34;19.30;99.90
10530;DHT22;5313;48.834;9.228;2022-10-19T14:24:01;19.20;99.90
10530;DHT22;5313;48.834;9.228;2022-10-19T14:26:28;19.30;99.90
10530;DHT22;5313;48.834;9.228;2022-10-19T14:28:56;19.00;99.90
10530;DHT22;5313;48.834;9.228;2022-10-19T14:31:27;18.90;99.90
10530;DHT22;5313;48.834;9.228;2022-10-19T14:33:58;19.00;99.90
10530;DHT22;5313;48.834;9.228;2022-10-19T14:36:30;19.00;99.90
10530;DHT22;5313;48.834;9.228;2022-10-19T14:38:57;18.90;99.90
10530;DHT22;5313;48.834;9.228;2022-10-19T14:43:52;18.50;99.90
10530;DHT22;5313;48.834;9.228;2022-10-19T14:46:18;18.60;99.90
10530;DHT22;5313;48.834;9.228;2022-10-19T14:48:46;18.70;99.90
10530;DHT22;5313;48.834;9.228;2022-10-19T14:51:26;18.60;99.90
10530;DHT22;5313;48.834;9.228;2022-10-19T14:54:05;18.50;99.90
10530;DHT22;5313;48.834;9.228;2022-10-19T14:56:53;18.40;99.90
10530;DHT22;5313;48.834;9.228;2022-10-19T14:59:28;18.50;99.90
10530;DHT22;5313;48.834;9.228;2022-10-19T15:01:58;18.50;99.90
10530;DHT22;5313;48.834;9.228;2022-10-19T15:04:27;18.70;99.90
10530;DHT22;5313;48.834;9.228;2022-10-19T15:06:54;18.60;99.90
10530;DHT22;5313;48.834;9.228;2022-10-19T15:09:32;18.50;99.90
10530;DHT22;5313;48.834;9.228;2022-10-19T15:12:13;18.50;99.90
10530;DHT22;5313;48.834;9.228;2022-10-19T15:14:40;18.30;99.90
10530;DHT22;5313;48.834;9.228;2022-10-19T15:19:45;18.40;99.90
10530;DHT22;5313;48.834;9.228;2022-10-19T15:27:35;18.20;99.90
10530;DHT22;5313;48.834;9.228;2022-10-19T15:30:18;18.20;99.90
10530;DHT22;5313;48.834;9.228;2022-10-19T15:32:55;18.30;99.90
10530;DHT22;5313;48.834;9.228;2022-10-19T15:37:59;17.90;99.90
10530;DHT22;5313;48.834;9.228;2022-10-19T15:40:32;17.80;99.90
10530;DHT22;5313;48.834;9.228;2022-10-19T15:42:58;17.80;99.90
10530;DHT22;5313;48.834;9.228;2022-10-19T15:45:33;17.80;99.90
10530;DHT22;5313;48.834;9.228;2022-10-19T15:48:27;17.70;99.90
10530;DHT22;5313;48.834;9.228;2022-10-19T15:50:54;17.70;99.90
10530;DHT22;5313;48.834;9.228;2022-10-19T15:53:20;18.50;99.90
10530;DHT22;5313;48.834;9.228;2022-10-19T15:55:47;17.60;99.90
10530;DHT22;5313;48.834;9.228;2022-10-19T15:58:13;17.60;99.90
10530;DHT22;5313;48.834;9.228;2022-10-19T16:00:39;17.60;99.90
10530;DHT22;5313;48.834;9.228;2022-10-19T16:03:05;17.60;99.90
10530;DHT22;5313;48.834;9.228;2022-10-19T16:05:32;17.50;99.90
10530;DHT22;5313;48.834;9.228;2022-10-19T16:07:59;17.50;99.90
10530;DHT22;5313;48.834;9.228;2022-10-19T16:10:25;17.40;99.90
10530;DHT22;5313;48.834;9.228;2022-10-19T16:12:51;17.50;99.90
10530;DHT22;5313;48.834;9.228;2022-10-19T16:15:19;17.50;99.90
10530;DHT22;5313;48.834;9.228;2022-10-19T16:17:58;17.40;99.90
10530;DHT22;5313;48.834;9.228;2022-10-19T16:20:29;17.50;99.90
10530;DHT22;5313;48.834;9.228;2022-10-19T16:22:54;17.50;99.90
10530;DHT22;5313;48.834;9.228;2022-10-19T16:25:20;17.40;99.90
10530;DHT22;5313;48.834;9.228;2022-10-19T16:27:46;17.30;99.90
10530;DHT22;5313;48.834;9.228;2022-10-19T16:30:12;17.30;99.90
10530;DHT22;5313;48.834;9.228;2022-10-19T16:32:37;17.30;99.90
10530;DHT22;5313;48.834;9.228;2022-10-19T16:35:05;17.20;99.90
10530;DHT22;5313;48.834;9.228;2022-10-19T16:37:32;17.20;99.90
10530;DHT22;5313;48.834;9.228;2022-10-19T16:39:58;17.20;99.90
10530;DHT22;5313;48.834;9.228;2022-10-19T16:42:23;17.20;99.90
10530;DHT22;5313;48.834;9.228;2022-10-19T16:44:50;17.20;99.90
10530;DHT22;5313;48.834;9.228;2022-10-19T16:47:15;17.10;99.90
10530;DHT22;5313;48.834;9.228;2022-10-19T16:49:43;17.00;99.90
10530;DHT22;5313;48.834;9.228;2022-10-19T16:52:12;19.50;99.90
10530;DHT22;5313;48.834;9.228;2022-10-19T16:54:38;17.00;99.90
10530;DHT22;5313;48.834;9.228;2022-10-19T16:57:03;16.90;99.90
10530;DHT22;5313;48.834;9.228;2022-10-19T16:59:29;16.90;99.90
10530;DHT22;5313;48.834;9.228;2022-10-19T17:01:54;16.80;99.90
10530;DHT22;5313;48.834;9.228;2022-10-19T17:04:20;16.70;99.90
10530;DHT22;5313;48.834;9.228;2022-10-19T17:06:46;16.60;99.90
10530;DHT22;5313;48.834;9.228;2022-10-19T17:09:12;16.50;99.90
10530;DHT22;5313;48.834;9.228;2022-10-19T17:11:38;16.40;99.90
10530;DHT22;5313;48.834;9.228;2022-10-19T17:14:06;16.40;99.90
10530;DHT22;5313;48.834;9.228;2022-10-19T17:16:34;16.30;99.90
10530;DHT22;5313;48.834;9.228;2022-10-19T17:19:01;16.30;99.90
10530;DHT22;5313;48.834;9.228;2022-10-19T17:21:29;16.20;99.90
10530;DHT22;5313;48.834;9.228;2022-10-19T17:23:56;16.20;99.90
10530;DHT22;5313;48.834;9.228;2022-10-19T17:26:30;16.10;99.90
10530;DHT22;5313;48.834;9.228;2022-10-19T17:28:57;15.90;99.90
10530;DHT22;5313;48.834;9.228;2022-10-19T17:31:23;15.80;99.90
10530;DHT22;5313;48.834;9.228;2022-10-19T17:33:49;15.60;99.90
10530;DHT22;5313;48.834;9.228;2022-10-19T17:36:17;15.60;99.90
10530;DHT22;5313;48.834;9.228;2022-10-19T17:38:48;15.60;99.90
10530;DHT22;5313;48.834;9.228;2022-10-19T17:41:19;15.40;99.90
10530;DHT22;5313;48.834;9.228;2022-10-19T17:43:50;15.40;99.90
10530;DHT22;5313;48.834;9.228;2022-10-19T17:46:22;15.40;99.90
10530;DHT22;5313;48.834;9.228;2022-10-19T17:48:48;15.40;99.90
10530;DHT22;5313;48.834;9.228;2022-10-19T17:51:19;15.10;99.90
10530;DHT22;5313;48.834;9.228;2022-10-19T17:53:46;15.10;99.90
10530;DHT22;5313;48.834;9.228;2022-10-19T17:56:14;15.10;99.90
10530;DHT22;5313;48.834;9.228;2022-10-19T17:58:41;15.10;99.90
10530;DHT22;5313;48.834;9.228;2022-10-19T18:01:07;15.10;99.90
10530;DHT22;5313;48.834;9.228;2022-10-19T18:03:34;15.10;99.90
10530;DHT22;5313;48.834;9.228;2022-10-19T18:06:02;15.10;99.90
10530;DHT22;5313;48.834;9.228;2022-10-19T18:08:29;15.00;99.90
10530;DHT22;5313;48.834;9.228;2022-10-19T18:11:00;14.90;99.90
10530;DHT22;5313;48.834;9.228;2022-10-19T18:13:27;14.90;99.90
10530;DHT22;5313;48.834;9.228;2022-10-19T18:15:57;14.90;99.90
10530;DHT22;5313;48.834;9.228;2022-10-19T18:18:22;14.80;99.90